createdAt,value
2023-03-07T00:01:37.733Z,1.05
2023-03-07T00:04:09.549Z,1.55
2023-03-07T00:06:41.199Z,0.93
2023-03-07T00:09:13.023Z,0.30
2023-03-07T00:11:44.538Z,0.43
2023-03-07T00:14:16.361Z,1.25
2023-03-07T00:16:47.897Z,1.30
2023-03-07T00:19:19.686Z,0.98
2023-03-07T00:21:51.274Z,1.10
2023-03-07T00:24:23.150Z,1.02
2023-03-07T00:26:54.639Z,1.25
2023-03-07T00:29:26.197Z,0.85
2023-03-07T00:31:57.737Z,0.75
2023-03-07T00:34:29.320Z,0.90
2023-03-07T00:37:00.853Z,2.08
2023-03-07T00:39:32.372Z,1.27
2023-03-07T00:42:03.874Z,1.00
2023-03-07T00:44:35.700Z,0.95
2023-03-07T00:47:07.226Z,1.20
2023-03-07T00:49:39.049Z,1.27
2023-03-07T00:52:10.603Z,1.02
2023-03-07T00:54:42.417Z,1.00
2023-03-07T00:57:13.960Z,0.47
2023-03-07T00:59:45.498Z,0.85
2023-03-07T01:02:17.339Z,0.75
2023-03-07T01:04:48.846Z,1.00
2023-03-07T01:07:20.716Z,1.08
2023-03-07T01:09:53.171Z,1.20
2023-03-07T01:12:24.864Z,1.40
2023-03-07T01:14:56.382Z,1.30
2023-03-07T01:17:27.933Z,1.85
2023-03-07T01:19:59.432Z,0.65
2023-03-07T01:22:30.932Z,2.00
2023-03-07T01:25:02.433Z,1.40
2023-03-07T01:27:33.959Z,1.38
2023-03-07T01:30:05.463Z,1.83
2023-03-07T01:32:37.053Z,2.55
2023-03-07T01:35:08.685Z,1.67
2023-03-07T01:37:40.481Z,1.02
2023-03-07T01:40:12.000Z,1.57
2023-03-07T01:42:43.507Z,1.13
2023-03-07T01:45:15.001Z,1.15
2023-03-07T01:47:46.559Z,1.58
2023-03-07T01:50:18.097Z,1.73
2023-03-07T01:52:49.806Z,2.80
2023-03-07T01:55:21.378Z,2.40
2023-03-07T01:57:52.956Z,1.98
2023-03-07T02:03:33.000Z,1.70
2023-03-07T02:06:04.984Z,2.20
2023-03-07T02:08:36.508Z,1.35
2023-03-07T02:11:08.364Z,2.08
2023-03-07T02:13:39.920Z,1.90
2023-03-07T02:16:11.782Z,3.22
2023-03-07T02:18:43.353Z,2.75
2023-03-07T02:21:15.177Z,2.25
2023-03-07T02:23:47.004Z,1.53
2023-03-07T02:26:18.518Z,1.90
2023-03-07T02:28:50.448Z,2.17
2023-03-07T02:31:22.021Z,1.42
2023-03-07T02:33:53.836Z,2.72
2023-03-07T02:36:26.137Z,2.70
2023-03-07T02:38:57.960Z,3.75
2023-03-07T02:41:29.490Z,2.85
2023-03-07T02:44:01.259Z,2.45
2023-03-07T02:46:32.835Z,2.90
2023-03-07T02:49:04.740Z,4.07
2023-03-07T02:51:36.260Z,3.40
2023-03-07T02:54:08.723Z,3.65
2023-03-07T02:56:40.258Z,2.63
2023-03-07T02:59:11.800Z,2.45
2023-03-07T03:01:43.398Z,1.33
2023-03-07T03:04:15.321Z,2.85
2023-03-07T03:06:46.888Z,2.05
2023-03-07T03:09:18.789Z,2.40
2023-03-07T03:11:50.309Z,2.70
2023-03-07T03:14:22.035Z,1.80
2023-03-07T03:16:53.604Z,2.37
2023-03-07T03:19:25.437Z,2.60
2023-03-07T03:21:57.046Z,2.58
2023-03-07T03:24:28.566Z,3.13
2023-03-07T03:27:00.133Z,3.22
2023-03-07T03:29:31.647Z,1.55
2023-03-07T03:32:03.215Z,4.00
2023-03-07T03:34:34.777Z,1.88
2023-03-07T03:37:07.860Z,2.92
2023-03-07T03:39:39.999Z,2.28
2023-03-07T03:42:11.492Z,3.33
2023-03-07T03:44:43.395Z,2.83
2023-03-07T03:47:14.908Z,3.90
2023-03-07T03:49:46.776Z,3.22
2023-03-07T03:52:18.386Z,2.53
2023-03-07T03:54:50.383Z,2.78
2023-03-07T03:57:21.981Z,2.45
2023-03-07T03:59:54.260Z,2.30
2023-03-07T04:02:26.698Z,3.72
2023-03-07T04:04:58.743Z,2.83
2023-03-07T04:07:30.271Z,3.03
2023-03-07T04:10:01.891Z,2.80
2023-03-07T04:12:33.389Z,2.00
2023-03-07T04:15:05.188Z,1.05
2023-03-07T04:17:37.011Z,2.87
2023-03-07T04:20:14.570Z,2.38
2023-03-07T04:22:46.140Z,1.88
2023-03-07T04:25:17.673Z,2.60
2023-03-07T04:27:49.198Z,2.15
2023-03-07T04:30:21.038Z,2.83
2023-03-07T04:32:52.533Z,2.57
2023-03-07T04:35:24.376Z,3.03
2023-03-07T04:37:55.883Z,3.17
2023-03-07T04:40:27.393Z,2.53
2023-03-07T04:42:58.886Z,2.88
2023-03-07T04:45:30.580Z,1.83
2023-03-07T04:48:02.104Z,1.48
2023-03-07T04:50:33.938Z,3.03
2023-03-07T04:53:05.450Z,1.80
2023-03-07T04:55:37.304Z,2.72
2023-03-07T04:58:12.898Z,2.40
2023-03-07T05:00:44.764Z,2.28
2023-03-07T05:03:16.340Z,2.37
2023-03-07T05:05:48.317Z,2.05
2023-03-07T05:08:19.828Z,1.30
2023-03-07T05:10:51.727Z,3.90
2023-03-07T05:13:23.235Z,1.63
2023-03-07T05:15:55.131Z,3.20
2023-03-07T05:18:26.684Z,1.33
2023-03-07T05:20:58.680Z,1.42
2023-03-07T05:23:30.192Z,3.13
2023-03-07T05:26:01.896Z,2.30
2023-03-07T05:28:34.035Z,2.53
2023-03-07T05:31:05.872Z,2.78
2023-03-07T05:33:37.424Z,1.87
2023-03-07T05:36:09.299Z,2.05
2023-03-07T05:38:40.829Z,2.27
2023-03-07T05:41:13.683Z,1.58
2023-03-07T05:43:45.181Z,2.53
2023-03-07T05:46:17.228Z,1.92
2023-03-07T05:48:48.804Z,2.20
2023-03-07T05:51:20.684Z,1.50
2023-03-07T05:53:52.249Z,3.03
2023-03-07T05:56:24.218Z,1.65
2023-03-07T05:58:55.794Z,2.03
2023-03-07T06:01:27.326Z,1.13
2023-03-07T06:03:58.922Z,1.67
2023-03-07T06:06:30.517Z,2.00
2023-03-07T06:09:02.079Z,3.22
2023-03-07T06:11:33.623Z,1.48
2023-03-07T06:14:05.178Z,2.42
2023-03-07T06:16:36.789Z,4.00
2023-03-07T06:19:08.460Z,1.25
2023-03-07T06:21:40.334Z,1.05
2023-03-07T06:24:11.853Z,1.43
2023-03-07T06:26:43.695Z,2.78
2023-03-07T06:29:15.218Z,2.47
2023-03-07T06:31:47.302Z,2.07
2023-03-07T06:34:18.879Z,1.15
2023-03-07T06:36:50.730Z,1.42
2023-03-07T06:39:22.305Z,1.33
2023-03-07T06:41:54.206Z,2.33
2023-03-07T06:44:25.714Z,1.70
2023-03-07T06:46:57.578Z,2.08
2023-03-07T06:49:29.091Z,2.33
2023-03-07T06:52:00.728Z,1.25
2023-03-07T06:54:32.283Z,2.38
2023-03-07T06:57:04.156Z,2.60
2023-03-07T06:59:36.011Z,2.67
2023-03-07T07:02:07.960Z,2.85
2023-03-07T07:04:39.881Z,2.40
2023-03-07T07:07:11.382Z,2.73
2023-03-07T07:09:43.246Z,1.80
2023-03-07T07:12:14.772Z,3.67
2023-03-07T07:14:46.475Z,1.50
2023-03-07T07:17:18.039Z,2.63
2023-03-07T07:19:49.919Z,1.38
2023-03-07T07:22:21.455Z,3.73
2023-03-07T07:24:52.985Z,2.65
2023-03-07T07:27:24.508Z,1.95
2023-03-07T07:29:56.030Z,2.10
2023-03-07T07:32:27.672Z,2.28
2023-03-07T07:34:59.634Z,1.40
2023-03-07T07:37:31.140Z,2.63
2023-03-07T07:40:03.256Z,3.08
2023-03-07T07:42:34.857Z,2.40
2023-03-07T07:45:06.576Z,2.70
2023-03-07T07:47:38.147Z,2.17
2023-03-07T07:50:09.987Z,2.42
2023-03-07T07:52:41.524Z,2.37
2023-03-07T07:55:16.503Z,2.92
2023-03-07T07:57:48.026Z,1.85
2023-03-07T08:00:21.561Z,1.85
2023-03-07T08:02:53.110Z,3.05
2023-03-07T08:05:24.929Z,2.35
2023-03-07T08:07:56.908Z,2.92
2023-03-07T08:10:28.420Z,2.83
2023-03-07T08:12:59.923Z,2.13
2023-03-07T08:15:31.505Z,2.42
2023-03-07T08:18:03.101Z,2.75
2023-03-07T08:20:35.782Z,3.13
2023-03-07T08:23:07.313Z,1.98
2023-03-07T08:25:39.198Z,2.95
2023-03-07T08:28:10.727Z,2.77
2023-03-07T08:30:42.437Z,2.13
2023-03-07T08:33:14.228Z,2.60
2023-03-07T08:35:46.022Z,3.00
2023-03-07T08:38:17.548Z,2.20
2023-03-07T08:40:49.639Z,1.35
2023-03-07T08:43:21.202Z,1.20
2023-03-07T08:45:53.285Z,2.03
2023-03-07T08:48:24.911Z,1.92
2023-03-07T08:50:56.744Z,2.42
2023-03-07T08:53:28.249Z,1.10
2023-03-07T08:56:00.045Z,2.53
2023-03-07T08:58:31.540Z,2.85
2023-03-07T09:01:04.068Z,1.50
2023-03-07T09:03:35.582Z,2.25
2023-03-07T09:06:07.440Z,1.80
2023-03-07T09:08:38.963Z,2.17
2023-03-07T09:11:10.690Z,2.60
2023-03-07T09:13:51.535Z,1.13
2023-03-07T09:16:24.573Z,2.00
2023-03-07T09:18:56.157Z,2.05
2023-03-07T09:21:27.723Z,0.65
2023-03-07T09:23:59.299Z,2.45
2023-03-07T09:26:30.857Z,2.67
2023-03-07T09:29:02.375Z,2.47
2023-03-07T09:31:33.979Z,2.15
2023-03-07T09:34:05.580Z,1.95
2023-03-07T09:36:37.609Z,1.15
2023-03-07T09:39:14.291Z,1.63
2023-03-07T09:41:46.185Z,1.95
2023-03-07T09:44:17.680Z,1.75
2023-03-07T09:46:49.551Z,1.92
2023-03-07T09:49:21.078Z,1.70
2023-03-07T09:51:52.906Z,1.90
2023-03-07T09:54:24.459Z,1.58
2023-03-07T09:56:56.394Z,1.85
2023-03-07T09:59:27.932Z,1.52
2023-03-07T10:01:59.738Z,1.38
2023-03-07T10:04:33.337Z,1.17
2023-03-07T10:07:05.375Z,1.10
2023-03-07T10:09:36.882Z,1.40
2023-03-07T10:12:08.401Z,1.27
2023-03-07T10:14:39.921Z,1.33
2023-03-07T10:17:11.677Z,1.33
2023-03-07T10:19:43.306Z,1.33
2023-03-07T10:22:15.191Z,1.27
2023-03-07T10:24:48.036Z,1.30
2023-03-07T10:27:19.851Z,0.80
2023-03-07T10:29:51.344Z,2.30
2023-03-07T10:32:22.915Z,1.27
2023-03-07T10:34:54.471Z,2.28
2023-03-07T10:37:26.353Z,1.38
2023-03-07T10:39:59.403Z,1.70
2023-03-07T10:42:32.157Z,1.25
2023-03-07T10:45:04.026Z,1.92
2023-03-07T10:47:35.734Z,1.70
2023-03-07T10:50:07.249Z,1.17
2023-03-07T10:52:39.133Z,1.92
2023-03-07T10:55:10.679Z,1.88
2023-03-07T10:57:42.188Z,0.70
2023-03-07T11:00:13.700Z,1.38
2023-03-07T11:02:48.434Z,1.25
2023-03-07T11:05:19.923Z,1.08
2023-03-07T11:07:51.435Z,1.30
2023-03-07T11:10:22.962Z,1.15
2023-03-07T11:12:54.790Z,1.27
2023-03-07T11:15:27.550Z,0.77
2023-03-07T11:20:31.594Z,0.77
2023-03-07T11:23:03.313Z,1.13
2023-03-07T11:25:34.832Z,0.80
2023-03-07T11:28:06.825Z,1.17
2023-03-07T11:30:38.333Z,0.87
2023-03-07T11:33:10.034Z,1.23
2023-03-07T11:35:41.902Z,0.82
2023-03-07T11:38:13.930Z,0.90
2023-03-07T11:40:45.435Z,1.50
2023-03-07T11:43:17.149Z,0.63
2023-03-07T11:45:48.740Z,0.82
2023-03-07T11:48:20.637Z,0.82
2023-03-07T11:50:52.164Z,1.00
2023-03-07T11:53:23.967Z,1.15
2023-03-07T11:55:55.489Z,1.38
2023-03-07T11:58:27.078Z,1.15
2023-03-07T12:00:58.605Z,1.25
2023-03-07T12:03:30.687Z,0.60
2023-03-07T12:06:02.441Z,0.70
2023-03-07T12:08:34.076Z,0.63
2023-03-07T12:11:06.575Z,0.90
2023-03-07T12:13:38.110Z,0.70
2023-03-07T12:16:10.124Z,0.30
2023-03-07T12:18:41.994Z,0.70
2023-03-07T12:21:13.829Z,0.30
2023-03-07T12:23:45.367Z,0.38
2023-03-07T12:26:17.314Z,0.80
2023-03-07T12:28:48.799Z,0.60
2023-03-07T12:31:20.685Z,0.70
2023-03-07T12:33:52.279Z,0.70
2023-03-07T12:36:24.191Z,0.55
2023-03-07T12:38:55.774Z,1.00
2023-03-07T12:41:27.303Z,0.73
2023-03-07T12:43:58.836Z,0.60
2023-03-07T12:46:30.429Z,0.43
2023-03-07T12:49:01.956Z,0.43
2023-03-07T12:51:33.499Z,0.35
2023-03-07T12:54:05.020Z,0.70
2023-03-07T12:56:36.869Z,0.30
2023-03-07T12:59:10.015Z,0.35
2023-03-07T13:01:41.883Z,0.40
2023-03-07T13:04:13.451Z,0.70
2023-03-07T13:06:45.029Z,0.22
2023-03-07T13:09:16.538Z,0.43
2023-03-07T13:11:48.490Z,0.50
2023-03-07T13:14:19.995Z,0.30
2023-03-07T13:16:54.978Z,0.40
2023-03-07T13:19:26.878Z,0.22
2023-03-07T13:21:58.720Z,0.40
2023-03-07T13:24:30.248Z,0.38
2023-03-07T13:27:02.501Z,0.40
2023-03-07T13:29:34.040Z,0.30
2023-03-07T13:32:05.935Z,0.63
2023-03-07T13:34:37.558Z,0.60
2023-03-07T13:37:09.399Z,0.73
2023-03-07T13:39:40.901Z,0.47
2023-03-07T13:42:12.670Z,0.50
2023-03-07T13:44:44.183Z,0.77
2023-03-07T13:47:16.053Z,0.60
2023-03-07T13:49:47.650Z,0.25
2023-03-07T13:52:19.173Z,0.70
2023-03-07T13:54:50.878Z,0.38
2023-03-07T13:57:22.412Z,0.60
2023-03-07T13:59:53.931Z,0.50
2023-03-07T14:02:25.865Z,0.38
2023-03-07T14:04:59.120Z,0.60
2023-03-07T14:07:31.938Z,0.40
2023-03-07T14:12:55.627Z,0.47
2023-03-07T14:15:27.211Z,0.30
2023-03-07T14:17:59.542Z,0.88
2023-03-07T14:20:31.100Z,0.40
2023-03-07T14:23:02.766Z,0.40
2023-03-07T14:25:34.286Z,0.30
2023-03-07T14:28:06.604Z,0.60
2023-03-07T14:30:38.133Z,0.40
2023-03-07T14:33:09.974Z,0.57
2023-03-07T14:35:41.508Z,0.93
2023-03-07T14:38:13.385Z,0.38
2023-03-07T14:40:45.580Z,0.90
2023-03-07T14:43:17.461Z,0.47
2023-03-07T14:45:49.886Z,0.37
2023-03-07T14:48:21.669Z,0.40
2023-03-07T14:50:53.484Z,0.30
2023-03-07T14:53:25.316Z,0.30
2023-03-07T14:55:56.803Z,0.30
2023-03-07T14:58:28.313Z,0.28
2023-03-07T15:00:59.906Z,0.38
2023-03-07T15:03:31.457Z,0.30
2023-03-07T15:06:02.995Z,0.20
2023-03-07T15:08:38.869Z,0.38
2023-03-07T15:11:13.194Z,0.30
2023-03-07T15:13:46.052Z,0.50
2023-03-07T15:18:49.586Z,0.20
2023-03-07T15:21:21.117Z,0.27
2023-03-07T15:23:53.898Z,0.28
2023-03-07T15:28:58.599Z,0.30
2023-03-07T15:31:30.178Z,0.38
2023-03-07T15:34:01.885Z,0.30
2023-03-07T15:36:37.175Z,0.40
2023-03-07T15:39:09.020Z,0.50
2023-03-07T15:41:40.533Z,0.47
2023-03-07T15:44:12.145Z,0.43
2023-03-07T15:46:43.637Z,0.20
2023-03-07T15:49:15.346Z,0.50
2023-03-07T15:51:47.210Z,0.47
2023-03-07T15:54:18.730Z,0.60
2023-03-07T15:56:50.274Z,0.43
2023-03-07T15:59:21.807Z,0.30
2023-03-07T16:01:53.845Z,0.38
2023-03-07T16:04:25.424Z,0.40
2023-03-07T16:06:57.303Z,0.40
2023-03-07T16:09:28.813Z,0.50
2023-03-07T16:12:00.536Z,0.93
2023-03-07T16:14:32.026Z,0.22
2023-03-07T16:17:03.778Z,0.20
2023-03-07T16:19:35.317Z,0.30
2023-03-07T16:22:06.912Z,0.30
2023-03-07T16:24:38.414Z,0.30
2023-03-07T16:27:10.154Z,0.60
2023-03-07T16:29:42.215Z,0.43
2023-03-07T16:32:14.113Z,0.68
2023-03-07T16:34:45.755Z,0.47
2023-03-07T16:37:17.651Z,0.45
2023-03-07T16:39:49.164Z,0.30
2023-03-07T16:42:20.781Z,0.47
2023-03-07T16:44:52.333Z,0.20
2023-03-07T16:47:23.933Z,0.30
2023-03-07T16:49:55.449Z,0.20
2023-03-07T16:52:26.972Z,0.50
2023-03-07T16:54:58.484Z,0.17
2023-03-07T16:57:30.031Z,0.63
2023-03-07T17:00:01.600Z,0.47
2023-03-07T17:02:33.272Z,0.40
2023-03-07T17:05:04.826Z,0.70
2023-03-07T17:07:36.683Z,0.40
2023-03-07T17:10:08.210Z,0.30
2023-03-07T17:12:40.344Z,0.20
2023-03-07T17:15:11.869Z,0.30
2023-03-07T17:17:43.393Z,0.60
2023-03-07T17:20:14.932Z,0.50
2023-03-07T17:22:46.902Z,0.55
2023-03-07T17:25:18.453Z,0.50
2023-03-07T17:27:50.316Z,0.30
2023-03-07T17:30:21.845Z,0.40
2023-03-07T17:32:53.833Z,0.57
2023-03-07T17:35:25.424Z,0.98
2023-03-07T17:37:57.003Z,0.22
2023-03-07T17:40:28.541Z,0.75
2023-03-07T17:43:00.448Z,0.28
2023-03-07T17:45:32.058Z,0.50
2023-03-07T17:48:03.815Z,0.30
2023-03-07T17:50:35.453Z,0.60
2023-03-07T17:53:07.288Z,0.50
2023-03-07T17:55:38.941Z,0.40
2023-03-07T17:58:11.081Z,0.40
2023-03-07T18:00:42.604Z,0.30
2023-03-07T18:03:14.461Z,0.40
2023-03-07T18:05:45.959Z,0.40
2023-03-07T18:08:17.635Z,0.40
2023-03-07T18:10:49.183Z,0.50
2023-03-07T18:13:24.477Z,0.38
2023-03-07T18:15:55.984Z,0.47
2023-03-07T18:18:27.886Z,0.55
2023-03-07T18:20:59.395Z,1.10
2023-03-07T18:23:30.908Z,0.93
2023-03-07T18:26:02.429Z,0.38
2023-03-07T18:28:34.026Z,0.45
2023-03-07T18:31:05.551Z,0.73
2023-03-07T18:33:37.284Z,0.60
2023-03-07T18:36:08.784Z,0.60
2023-03-07T18:38:40.626Z,0.40
2023-03-07T18:41:12.138Z,0.60
2023-03-07T18:43:44.004Z,0.98
2023-03-07T18:46:15.628Z,0.40
2023-03-07T18:48:47.214Z,0.90
2023-03-07T18:51:18.785Z,0.70
2023-03-07T18:53:50.771Z,0.55
2023-03-07T18:56:22.308Z,0.77
2023-03-07T18:58:56.941Z,0.68
2023-03-07T19:01:28.533Z,0.93
2023-03-07T19:04:03.201Z,0.52
2023-03-07T19:06:35.050Z,0.40
2023-03-07T19:09:06.880Z,0.65
2023-03-07T19:11:38.390Z,0.60
2023-03-07T19:14:10.248Z,0.82
2023-03-07T19:16:41.929Z,0.27
2023-03-07T19:19:13.567Z,0.50
2023-03-07T19:21:45.056Z,0.93
2023-03-07T19:24:16.984Z,0.85
2023-03-07T19:26:48.469Z,0.52
2023-03-07T19:29:20.016Z,0.75
2023-03-07T19:31:51.601Z,0.68
2023-03-07T19:34:23.378Z,0.82
2023-03-07T19:36:54.953Z,0.65
2023-03-07T19:39:26.829Z,0.60
2023-03-07T19:41:58.370Z,0.77
2023-03-07T19:44:29.952Z,1.02
2023-03-07T19:47:01.445Z,1.00
2023-03-07T19:49:32.963Z,0.70
2023-03-07T19:52:04.467Z,0.50
2023-03-07T19:54:36.050Z,0.93
2023-03-07T19:57:09.191Z,0.80
2023-03-07T19:59:41.101Z,0.68
2023-03-07T20:02:12.614Z,0.93
2023-03-07T20:04:44.396Z,1.60
2023-03-07T20:07:15.893Z,0.40
2023-03-07T20:09:47.755Z,1.45
2023-03-07T20:12:19.237Z,0.90
2023-03-07T20:14:51.049Z,1.52
2023-03-07T20:17:22.588Z,1.20
2023-03-07T20:19:56.139Z,1.17
2023-03-07T20:22:28.521Z,1.30
2023-03-07T20:25:00.429Z,1.00
2023-03-07T20:27:32.023Z,0.70
2023-03-07T20:30:04.234Z,1.10
2023-03-07T20:32:35.919Z,1.30
2023-03-07T20:35:07.410Z,0.80
2023-03-07T20:37:38.929Z,1.45
2023-03-07T20:40:10.442Z,1.15
2023-03-07T20:42:42.247Z,1.25
2023-03-07T20:45:13.746Z,1.30
2023-03-07T20:47:45.566Z,0.60
2023-03-07T20:50:17.072Z,1.17
2023-03-07T20:52:48.857Z,0.85
2023-03-07T20:55:20.431Z,0.40
2023-03-07T20:57:51.953Z,0.77
2023-03-07T21:00:23.439Z,1.00
2023-03-07T21:03:05.480Z,1.48
2023-03-07T21:05:37.678Z,0.80
2023-03-07T21:08:09.873Z,0.93
2023-03-07T21:10:41.384Z,1.17
2023-03-07T21:13:13.435Z,1.08
2023-03-07T21:15:44.926Z,1.13
2023-03-07T21:18:16.825Z,0.77
2023-03-07T21:20:48.406Z,0.90
2023-03-07T21:23:20.254Z,1.48
2023-03-07T21:25:51.736Z,1.00
2023-03-07T21:28:23.573Z,0.80
2023-03-07T21:30:55.070Z,1.13
2023-03-07T21:33:27.052Z,1.13
2023-03-07T21:35:58.670Z,0.73
2023-03-07T21:38:30.210Z,0.88
2023-03-07T21:41:01.710Z,1.10
2023-03-07T21:43:33.241Z,1.10
2023-03-07T21:46:04.946Z,0.82
2023-03-07T21:48:36.679Z,1.15
2023-03-07T21:51:08.186Z,0.73
2023-03-07T21:53:39.878Z,1.38
2023-03-07T21:56:11.399Z,1.20
2023-03-07T21:58:43.233Z,0.52
2023-03-07T22:01:14.879Z,0.63
2023-03-07T22:03:46.833Z,0.60
2023-03-07T22:06:18.446Z,0.60
2023-03-07T22:08:49.959Z,0.45
2023-03-07T22:11:21.513Z,0.45
2023-03-07T22:13:53.025Z,0.63
2023-03-07T22:16:24.568Z,0.57
2023-03-07T22:18:56.488Z,0.75
2023-03-07T22:21:28.103Z,0.40
2023-03-07T22:24:01.383Z,0.50
2023-03-07T22:26:32.996Z,0.55
2023-03-07T22:29:04.861Z,0.50
2023-03-07T22:31:36.454Z,0.87
2023-03-07T22:34:08.213Z,0.30
2023-03-07T22:36:39.732Z,1.25
2023-03-07T22:39:11.240Z,0.93
2023-03-07T22:41:42.752Z,0.40
2023-03-07T22:44:16.239Z,1.02
2023-03-07T22:46:48.078Z,0.22
2023-03-07T22:49:19.595Z,0.70
2023-03-07T22:51:51.079Z,0.43
2023-03-07T22:54:22.833Z,0.68
2023-03-07T22:56:54.332Z,0.47
2023-03-07T22:59:26.183Z,0.65
2023-03-07T23:01:57.733Z,0.30
2023-03-07T23:04:30.490Z,0.50
2023-03-07T23:07:02.052Z,0.60
2023-03-07T23:09:33.583Z,0.63
2023-03-07T23:12:05.394Z,0.60
2023-03-07T23:14:37.130Z,0.50
2023-03-07T23:17:08.612Z,0.65
2023-03-07T23:19:40.532Z,0.73
2023-03-07T23:22:12.477Z,1.33
2023-03-07T23:24:44.294Z,0.68
2023-03-07T23:27:15.784Z,0.40
2023-03-07T23:29:47.529Z,0.90
2023-03-07T23:32:19.232Z,0.33
2023-03-07T23:34:51.073Z,0.25
2023-03-07T23:37:22.574Z,0.67
2023-03-07T23:39:54.113Z,0.52
2023-03-07T23:42:26.060Z,0.95
2023-03-07T23:44:57.634Z,0.20
2023-03-07T23:47:29.323Z,0.98
2023-03-07T23:50:00.914Z,0.77
2023-03-07T23:52:32.437Z,0.40
2023-03-07T23:55:03.937Z,0.40
2023-03-07T23:57:36.651Z,0.30
